createdAt,value
2022-11-25T00:00:31.737Z,100373.53
2022-11-25T00:02:58.441Z,100361.19
2022-11-25T00:05:25.913Z,100359.91
2022-11-25T00:07:52.551Z,100350.78
2022-11-25T00:10:19.515Z,100349.94
2022-11-25T00:12:46.027Z,100354.44
2022-11-25T00:15:12.577Z,100353.19
2022-11-25T00:17:39.297Z,100352.47
2022-11-25T00:20:06.594Z,100354.72
2022-11-25T00:22:33.509Z,100343.63
2022-11-25T00:25:00.119Z,100339.13
2022-11-25T00:27:26.683Z,100327.47
2022-11-25T00:29:53.205Z,100340.66
2022-11-25T00:32:19.955Z,100343.75
2022-11-25T00:34:46.617Z,100338.16
2022-11-25T00:37:13.778Z,100335.50
2022-11-25T00:39:40.339Z,100328.66
2022-11-25T00:42:25.602Z,100325.28
2022-11-25T00:44:52.616Z,100327.81
2022-11-25T00:47:20.825Z,100332.44
2022-11-25T00:49:54.719Z,100338.47
2022-11-25T00:52:23.632Z,100324.00
2022-11-25T00:54:51.331Z,100329.22
2022-11-25T00:57:20.200Z,100328.88
2022-11-25T00:59:47.544Z,100330.84
2022-11-25T01:02:15.649Z,100331.09
2022-11-25T01:04:43.922Z,100332.81
2022-11-25T01:07:11.361Z,100336.47
2022-11-25T01:09:37.986Z,100342.44
2022-11-25T01:12:05.373Z,100347.94
2022-11-25T01:14:33.051Z,100339.00
2022-11-25T01:17:00.325Z,100345.06
2022-11-25T01:19:27.129Z,100339.25
2022-11-25T01:21:53.764Z,100346.25
2022-11-25T01:24:20.372Z,100343.47
2022-11-25T01:26:47.073Z,100343.75
2022-11-25T01:29:19.036Z,100347.69
2022-11-25T01:31:46.622Z,100355.28
2022-11-25T01:34:17.774Z,100349.41
2022-11-25T01:36:45.249Z,100335.22
2022-11-25T01:39:20.314Z,100333.84
2022-11-25T01:41:48.573Z,100337.25
2022-11-25T01:44:21.554Z,100333.69
2022-11-25T01:46:51.332Z,100342.94
2022-11-25T01:49:24.807Z,100334.34
2022-11-25T01:51:59.481Z,100334.34
2022-11-25T01:54:29.496Z,100327.41
2022-11-25T01:57:03.960Z,100325.25
2022-11-25T01:59:34.813Z,100325.19
2022-11-25T02:02:01.836Z,100322.31
2022-11-25T02:04:33.866Z,100321.13
2022-11-25T02:07:22.565Z,100324.63
2022-11-25T02:09:50.124Z,100325.69
2022-11-25T02:12:18.535Z,100322.28
2022-11-25T02:14:46.459Z,100324.97
2022-11-25T02:17:13.098Z,100329.06
2022-11-25T02:19:45.573Z,100327.00
2022-11-25T02:22:22.001Z,100326.78
2022-11-25T02:24:54.428Z,100329.16
2022-11-25T02:27:21.117Z,100314.19
2022-11-25T02:29:48.528Z,100316.63
2022-11-25T02:32:21.885Z,100312.75
2022-11-25T02:34:49.754Z,100308.19
2022-11-25T02:37:21.009Z,100311.41
2022-11-25T02:39:48.672Z,100301.44
2022-11-25T02:42:18.333Z,100298.97
2022-11-25T02:44:47.974Z,100302.53
2022-11-25T02:47:15.033Z,100297.78
2022-11-25T02:49:41.666Z,100303.44
2022-11-25T02:52:09.337Z,100301.53
2022-11-25T02:54:37.151Z,100302.66
2022-11-25T02:57:04.060Z,100305.34
2022-11-25T02:59:33.625Z,100307.56
2022-11-25T03:02:00.433Z,100312.09
2022-11-25T03:04:27.281Z,100310.81
2022-11-25T03:06:53.823Z,100315.47
2022-11-25T03:09:20.669Z,100315.81
2022-11-25T03:12:05.928Z,100316.44
2022-11-25T03:14:33.161Z,100311.28
2022-11-25T03:16:59.916Z,100309.25
2022-11-25T03:19:27.942Z,100309.94
2022-11-25T03:21:54.508Z,100305.69
2022-11-25T03:24:21.152Z,100304.06
2022-11-25T03:26:49.146Z,100305.47
2022-11-25T03:29:15.750Z,100304.06
2022-11-25T03:31:42.502Z,100302.88
2022-11-25T03:34:10.982Z,100300.94
2022-11-25T03:36:37.643Z,100298.97
2022-11-25T03:39:05.099Z,100306.63
2022-11-25T03:41:33.880Z,100306.84
2022-11-25T03:44:00.890Z,100300.13
2022-11-25T03:46:27.560Z,100298.22
2022-11-25T03:48:55.115Z,100299.88
2022-11-25T03:51:22.568Z,100295.41
2022-11-25T03:53:49.435Z,100306.28
2022-11-25T03:56:16.555Z,100297.84
2022-11-25T03:58:43.716Z,100296.22
2022-11-25T04:01:11.896Z,100298.03
2022-11-25T04:03:38.520Z,100293.22
2022-11-25T04:06:05.152Z,100292.84
2022-11-25T04:08:32.251Z,100291.25
2022-11-25T04:10:59.163Z,100292.56
2022-11-25T04:13:29.749Z,100294.28
2022-11-25T04:15:57.345Z,100293.41
2022-11-25T04:18:25.323Z,100293.16
2022-11-25T04:20:55.147Z,100293.41
2022-11-25T04:23:22.217Z,100297.09
2022-11-25T04:25:55.684Z,100288.06
2022-11-25T04:28:28.537Z,100291.16
2022-11-25T04:30:55.183Z,100293.31
2022-11-25T04:33:22.258Z,100298.41
2022-11-25T04:35:48.880Z,100290.72
2022-11-25T04:38:15.932Z,100294.38
2022-11-25T04:40:42.600Z,100303.06
2022-11-25T04:43:21.748Z,100302.84
2022-11-25T04:48:41.277Z,100310.84
2022-11-25T04:51:08.733Z,100307.28
2022-11-25T04:53:35.428Z,100302.41
2022-11-25T04:56:02.012Z,100303.38
2022-11-25T04:58:52.609Z,100305.81
2022-11-25T05:01:19.482Z,100314.19
2022-11-25T05:03:55.987Z,100312.69
2022-11-25T05:06:25.879Z,100307.50
2022-11-25T05:08:53.006Z,100298.75
2022-11-25T05:11:21.044Z,100297.47
2022-11-25T05:13:47.936Z,100301.91
2022-11-25T05:16:14.560Z,100306.34
2022-11-25T05:18:41.276Z,100305.16
2022-11-25T05:21:07.884Z,100316.00
2022-11-25T05:23:38.779Z,100305.97
2022-11-25T05:26:05.468Z,100293.53
2022-11-25T05:28:44.275Z,100284.63
2022-11-25T05:31:12.419Z,100286.19
2022-11-25T05:33:39.116Z,100287.25
2022-11-25T05:36:07.924Z,100276.44
2022-11-25T05:38:43.246Z,100278.44
2022-11-25T05:41:13.231Z,100271.84
2022-11-25T05:43:42.962Z,100276.31
2022-11-25T05:46:10.249Z,100280.31
2022-11-25T05:48:42.980Z,100274.84
2022-11-25T05:51:09.733Z,100272.53
2022-11-25T05:53:37.372Z,100280.91
2022-11-25T05:56:06.671Z,100283.97
2022-11-25T05:58:59.928Z,100294.13
2022-11-25T06:01:38.098Z,100291.94
2022-11-25T06:04:05.208Z,100306.19
2022-11-25T06:06:32.500Z,100325.41
2022-11-25T06:08:59.924Z,100335.38
2022-11-25T06:11:27.377Z,100341.91
2022-11-25T06:13:57.105Z,100333.59
2022-11-25T06:16:24.869Z,100339.38
2022-11-25T06:19:06.559Z,100343.44
2022-11-25T06:21:33.604Z,100335.56
2022-11-25T06:24:01.156Z,100339.34
2022-11-25T06:26:28.347Z,100336.88
2022-11-25T06:28:56.451Z,100337.44
2022-11-25T06:31:26.276Z,100340.78
2022-11-25T06:34:09.664Z,100327.91
2022-11-25T06:36:38.528Z,100337.06
2022-11-25T06:39:05.178Z,100332.75
2022-11-25T06:41:31.736Z,100333.44
2022-11-25T06:43:58.737Z,100334.16
2022-11-25T06:46:25.708Z,100329.34
2022-11-25T06:48:55.452Z,100328.41
2022-11-25T06:51:24.400Z,100324.06
2022-11-25T06:53:51.063Z,100325.94
2022-11-25T06:56:19.408Z,100318.22
2022-11-25T06:58:47.522Z,100327.66
2022-11-25T07:01:16.812Z,100325.84
2022-11-25T07:03:44.779Z,100317.94
2022-11-25T07:06:16.681Z,100323.53
2022-11-25T07:08:44.230Z,100336.81
2022-11-25T07:11:16.361Z,100338.03
2022-11-25T07:13:43.008Z,100334.22
2022-11-25T07:16:11.446Z,100338.63
2022-11-25T07:18:40.927Z,100334.78
2022-11-25T07:21:13.925Z,100339.56
2022-11-25T07:23:41.739Z,100346.16
2022-11-25T07:26:11.623Z,100349.38
2022-11-25T07:28:39.225Z,100346.25
2022-11-25T07:31:32.415Z,100345.56
2022-11-25T07:34:06.387Z,100363.00
2022-11-25T07:36:34.898Z,100365.00
2022-11-25T07:39:06.232Z,100365.34
2022-11-25T07:41:33.511Z,100372.22
2022-11-25T07:44:03.674Z,100371.38
2022-11-25T07:46:39.414Z,100372.81
2022-11-25T07:49:09.628Z,100371.75
2022-11-25T07:51:42.829Z,100370.16
2022-11-25T07:54:12.036Z,100375.97
2022-11-25T07:56:41.200Z,100378.25
2022-11-25T07:59:10.849Z,100380.06
2022-11-25T08:01:37.517Z,100377.97
2022-11-25T08:04:04.955Z,100379.34
2022-11-25T08:06:31.496Z,100382.19
2022-11-25T08:08:58.454Z,100385.97
2022-11-25T08:11:28.311Z,100388.06
2022-11-25T08:13:55.569Z,100377.69
2022-11-25T08:16:25.018Z,100390.56
2022-11-25T08:18:51.695Z,100394.78
2022-11-25T08:21:19.327Z,100397.53
2022-11-25T08:23:48.832Z,100405.34
2022-11-25T08:26:25.681Z,100398.06
2022-11-25T08:28:53.578Z,100404.84
2022-11-25T08:31:32.457Z,100402.13
2022-11-25T08:33:59.954Z,100407.56
2022-11-25T08:36:28.353Z,100412.59
2022-11-25T08:38:57.720Z,100420.81
2022-11-25T08:41:36.106Z,100420.47
2022-11-25T08:44:05.015Z,100425.50
2022-11-25T08:46:36.247Z,100418.00
2022-11-25T08:49:05.055Z,100422.31
2022-11-25T08:51:33.767Z,100426.75
2022-11-25T08:54:00.481Z,100425.66
2022-11-25T08:56:27.931Z,100428.19
2022-11-25T08:58:55.337Z,100425.31
2022-11-25T09:01:22.999Z,100426.38
2022-11-25T09:03:52.430Z,100427.66
2022-11-25T09:06:19.516Z,100425.75
2022-11-25T09:08:47.245Z,100433.69
2022-11-25T09:11:14.940Z,100430.81
2022-11-25T09:13:41.658Z,100434.47
2022-11-25T09:16:09.399Z,100441.25
2022-11-25T09:18:37.131Z,100448.81
2022-11-25T09:21:09.779Z,100444.59
2022-11-25T09:23:38.547Z,100452.72
2022-11-25T09:26:06.967Z,100453.53
2022-11-25T09:28:35.510Z,100452.16
2022-11-25T09:31:09.419Z,100450.63
2022-11-25T09:33:36.658Z,100463.25
2022-11-25T09:36:04.253Z,100456.00
2022-11-25T09:38:30.980Z,100452.97
2022-11-25T09:41:03.807Z,100462.53
2022-11-25T09:44:14.877Z,100460.13
2022-11-25T09:47:01.495Z,100470.16
2022-11-25T09:50:17.686Z,100462.75
2022-11-25T09:53:04.925Z,100473.22
2022-11-25T09:55:39.710Z,100466.38
2022-11-25T09:58:21.435Z,100465.63
2022-11-25T10:00:51.345Z,100469.38
2022-11-25T10:03:39.168Z,100469.63
2022-11-25T10:06:17.004Z,100470.16
2022-11-25T10:08:48.986Z,100469.41
2022-11-25T10:11:25.548Z,100479.31
2022-11-25T10:13:59.590Z,100469.66
2022-11-25T10:16:41.127Z,100487.44
2022-11-25T10:19:26.087Z,100485.34
2022-11-25T10:21:52.820Z,100485.00
2022-11-25T10:24:21.331Z,100477.69
2022-11-25T10:26:57.361Z,100484.78
2022-11-25T10:29:30.177Z,100482.28
2022-11-25T10:32:11.259Z,100482.03
2022-11-25T10:34:45.530Z,100490.72
2022-11-25T10:37:23.392Z,100494.53
2022-11-25T10:39:50.202Z,100503.38
2022-11-25T10:42:26.467Z,100498.66
2022-11-25T10:44:54.874Z,100503.25
2022-11-25T10:47:44.332Z,100490.53
2022-11-25T10:50:33.815Z,100496.69
2022-11-25T10:53:13.943Z,100491.56
2022-11-25T10:55:56.933Z,100495.00
2022-11-25T10:58:28.844Z,100494.63
2022-11-25T11:01:21.144Z,100501.31
2022-11-25T11:03:54.671Z,100503.97
2022-11-25T11:06:32.442Z,100498.81
2022-11-25T11:08:59.117Z,100506.06
2022-11-25T11:11:26.237Z,100501.50
2022-11-25T11:14:13.234Z,100507.03
2022-11-25T11:16:45.328Z,100506.31
2022-11-25T11:19:29.961Z,100512.69
2022-11-25T11:21:57.932Z,100504.94
2022-11-25T11:24:30.443Z,100510.09
2022-11-25T11:27:07.553Z,100510.28
2022-11-25T11:29:34.965Z,100511.84
2022-11-25T11:32:05.061Z,100514.88
2022-11-25T11:34:40.820Z,100519.72
2022-11-25T11:37:19.429Z,100522.44
2022-11-25T11:40:00.637Z,100519.78
2022-11-25T11:42:53.798Z,100516.63
2022-11-25T11:45:37.771Z,100516.88
2022-11-25T11:48:20.195Z,100518.06
2022-11-25T11:51:13.673Z,100524.13
2022-11-25T11:54:03.932Z,100517.78
2022-11-25T11:56:54.878Z,100527.13
2022-11-25T12:00:01.439Z,100526.50
2022-11-25T12:02:41.139Z,100528.94
2022-11-25T12:05:10.902Z,100538.72
2022-11-25T12:07:49.909Z,100535.22
2022-11-25T12:10:25.995Z,100525.94
2022-11-25T12:12:59.024Z,100535.00
2022-11-25T12:15:37.746Z,100535.63
2022-11-25T12:18:31.151Z,100521.50
2022-11-25T12:21:02.776Z,100529.34
2022-11-25T12:23:41.785Z,100538.78
2022-11-25T12:26:29.077Z,100528.19
2022-11-25T12:29:01.527Z,100530.94
2022-11-25T12:31:37.835Z,100530.25
2022-11-25T12:34:34.415Z,100536.75
2022-11-25T12:37:14.692Z,100537.97
2022-11-25T12:39:54.645Z,100540.81
2022-11-25T12:42:26.010Z,100542.78
2022-11-25T12:45:15.659Z,100549.38
2022-11-25T12:47:43.233Z,100545.25
2022-11-25T12:50:17.588Z,100545.22
2022-11-25T12:52:58.976Z,100556.44
2022-11-25T12:55:28.051Z,100552.59
2022-11-25T12:58:04.275Z,100564.88
2022-11-25T13:00:48.658Z,100574.84
2022-11-25T13:03:43.493Z,100568.00
2022-11-25T13:06:33.549Z,100565.31
2022-11-25T13:09:37.716Z,100575.38
2022-11-25T13:12:30.062Z,100576.34
2022-11-25T13:15:16.031Z,100575.88
2022-11-25T13:17:45.897Z,100572.25
2022-11-25T13:20:27.476Z,100585.72
2022-11-25T13:23:03.196Z,100580.41
2022-11-25T13:25:29.965Z,100584.28
2022-11-25T13:27:58.895Z,100585.31
2022-11-25T13:30:34.938Z,100581.75
2022-11-25T13:33:13.666Z,100581.44
2022-11-25T13:36:32.480Z,100584.16
2022-11-25T13:39:05.572Z,100593.38
2022-11-25T13:41:36.447Z,100592.34
2022-11-25T13:44:27.938Z,100588.84
2022-11-25T13:46:58.625Z,100594.75
2022-11-25T13:49:28.587Z,100593.38
2022-11-25T13:52:25.954Z,100609.06
2022-11-25T13:54:55.185Z,100614.19
2022-11-25T13:57:34.720Z,100617.97
2022-11-25T14:00:12.711Z,100619.44
2022-11-25T14:02:45.374Z,100619.50
2022-11-25T14:05:31.161Z,100628.31
2022-11-25T14:08:41.099Z,100628.25
2022-11-25T14:11:13.152Z,100632.31
2022-11-25T14:14:01.109Z,100622.69
2022-11-25T14:16:41.871Z,100629.41
2022-11-25T14:19:51.643Z,100626.53
2022-11-25T14:22:43.329Z,100623.69
2022-11-25T14:26:06.111Z,100625.69
2022-11-25T14:29:02.878Z,100631.13
2022-11-25T14:31:44.170Z,100636.78
2022-11-25T14:34:44.330Z,100639.81
2022-11-25T14:37:26.890Z,100645.75
2022-11-25T14:40:07.194Z,100641.91
2022-11-25T14:42:44.213Z,100649.47
2022-11-25T14:45:31.654Z,100652.66
2022-11-25T14:48:26.098Z,100661.56
2022-11-25T14:51:07.124Z,100659.72
2022-11-25T14:53:48.520Z,100666.78
2022-11-25T14:56:35.950Z,100661.41
2022-11-25T14:59:09.236Z,100662.16
2022-11-25T15:01:52.813Z,100663.72
2022-11-25T15:04:25.683Z,100675.78
2022-11-25T15:06:57.843Z,100670.22
2022-11-25T15:09:35.746Z,100672.56
2022-11-25T15:12:14.961Z,100672.41
2022-11-25T15:14:58.540Z,100681.63
2022-11-25T15:17:32.461Z,100685.47
2022-11-25T15:20:03.679Z,100698.28
2022-11-25T15:22:30.893Z,100696.19
2022-11-25T15:25:13.060Z,100697.16
2022-11-25T15:27:49.278Z,100700.56
2022-11-25T15:30:24.805Z,100700.75
2022-11-25T15:32:52.740Z,100708.81
2022-11-25T15:35:25.430Z,100707.06
2022-11-25T15:37:57.632Z,100716.28
2022-11-25T15:40:43.222Z,100720.47
2022-11-25T15:43:28.061Z,100720.44
2022-11-25T15:46:13.850Z,100717.31
2022-11-25T15:48:46.646Z,100728.09
2022-11-25T15:51:15.986Z,100730.84
2022-11-25T15:53:44.381Z,100728.78
2022-11-25T15:56:20.806Z,100737.22
2022-11-25T15:59:01.523Z,100740.22
2022-11-25T16:01:40.679Z,100740.50
2022-11-25T16:04:23.909Z,100743.56
2022-11-25T16:06:59.649Z,100743.50
2022-11-25T16:09:31.400Z,100748.94
2022-11-25T16:12:09.447Z,100748.47
2022-11-25T16:14:42.656Z,100769.75
2022-11-25T16:17:17.953Z,100767.59
2022-11-25T16:19:53.349Z,100770.91
2022-11-25T16:22:29.724Z,100771.56
2022-11-25T16:25:02.697Z,100776.88
2022-11-25T16:27:34.279Z,100781.50
2022-11-25T16:30:07.583Z,100783.72
2022-11-25T16:32:45.671Z,100785.97
2022-11-25T16:35:15.333Z,100787.44
2022-11-25T16:37:49.795Z,100786.28
2022-11-25T16:40:18.510Z,100791.38
2022-11-25T16:42:52.430Z,100795.59
2022-11-25T16:45:52.580Z,100798.28
2022-11-25T16:48:22.731Z,100800.97
2022-11-25T16:50:56.288Z,100802.56
2022-11-25T16:53:47.884Z,100806.31
2022-11-25T16:56:22.059Z,100804.22
2022-11-25T16:58:55.426Z,100818.44
2022-11-25T17:01:28.471Z,100817.16
2022-11-25T17:04:03.484Z,100816.94
2022-11-25T17:06:38.383Z,100816.38
2022-11-25T17:09:08.881Z,100823.44
2022-11-25T17:11:49.038Z,100828.66
2022-11-25T17:14:28.574Z,100830.31
2022-11-25T17:17:03.539Z,100833.53
2022-11-25T17:19:45.598Z,100834.88
2022-11-25T17:22:39.537Z,100838.69
2022-11-25T17:25:15.600Z,100842.84
2022-11-25T17:27:51.909Z,100845.28
2022-11-25T17:30:33.914Z,100854.25
2022-11-25T17:33:15.810Z,100851.84
2022-11-25T17:35:55.449Z,100860.78
2022-11-25T17:39:16.144Z,100866.13
2022-11-25T17:41:29.890Z,100865.47
2022-11-25T17:44:02.170Z,100865.13
2022-11-25T17:46:43.583Z,100880.75
2022-11-25T17:52:39.561Z,100886.81
2022-11-25T17:55:12.776Z,100893.78
2022-11-25T17:58:21.262Z,100893.00
2022-11-25T18:04:01.505Z,100906.75
2022-11-25T18:06:34.139Z,100906.00
2022-11-25T18:09:22.423Z,100912.81
2022-11-25T18:12:05.582Z,100907.91
2022-11-25T18:14:47.728Z,100909.13
2022-11-25T18:17:42.990Z,100921.28
2022-11-25T18:20:39.390Z,100924.13
2022-11-25T18:23:19.165Z,100926.25
2022-11-25T18:25:55.712Z,100925.28
2022-11-25T18:28:39.750Z,100929.94
2022-11-25T18:31:18.975Z,100934.03
2022-11-25T18:33:56.850Z,100941.91
2022-11-25T18:36:32.074Z,100946.09
2022-11-25T18:39:34.621Z,100951.66
2022-11-25T18:45:44.001Z,100950.84
2022-11-25T18:48:27.554Z,100956.38
2022-11-25T18:51:19.395Z,100961.53
2022-11-25T18:53:55.715Z,100962.31
2022-11-25T18:57:04.444Z,100966.56
2022-11-25T19:03:01.427Z,100976.41
2022-11-25T19:05:52.869Z,100977.81
2022-11-25T19:08:22.324Z,100982.41
2022-11-25T19:11:35.953Z,100991.66
2022-11-25T19:14:12.849Z,100986.97
2022-11-25T19:16:49.564Z,100998.19
2022-11-25T19:19:23.342Z,101000.03
2022-11-25T19:24:52.288Z,101009.38
2022-11-25T19:27:41.714Z,101016.22
2022-11-25T19:30:29.027Z,101014.50
2022-11-25T19:33:09.230Z,101013.41
2022-11-25T19:35:54.553Z,101016.38
2022-11-25T19:38:53.195Z,101023.03
2022-11-25T19:41:25.492Z,101028.66
2022-11-25T19:44:01.144Z,101037.19
2022-11-25T19:47:14.198Z,101033.94
2022-11-25T19:49:54.269Z,101043.41
2022-11-25T19:55:37.802Z,101053.56
2022-11-25T19:58:15.575Z,101051.44
2022-11-25T20:01:27.310Z,101055.59
2022-11-25T20:04:54.640Z,101071.91
2022-11-25T20:08:02.934Z,101077.84
2022-11-25T20:10:49.586Z,101086.56
2022-11-25T20:13:32.641Z,101091.09
2022-11-25T20:16:52.807Z,101097.50
2022-11-25T20:25:41.033Z,101105.56
2022-11-25T20:28:22.602Z,101110.94
2022-11-25T20:31:10.557Z,101116.88
2022-11-25T20:33:55.643Z,101122.06
2022-11-25T20:40:17.621Z,101125.00
2022-11-25T20:46:40.710Z,101135.25
2022-11-25T20:49:42.161Z,101134.56
2022-11-25T20:52:39.514Z,101138.41
2022-11-25T20:55:41.452Z,101144.59
2022-11-25T20:58:31.314Z,101153.22
2022-11-25T21:01:29.027Z,101154.25
2022-11-25T21:04:27.474Z,101157.41
2022-11-25T21:07:49.609Z,101162.53
2022-11-25T21:10:43.959Z,101162.94
2022-11-25T21:16:58.732Z,101174.69
2022-11-25T21:19:48.603Z,101182.97
2022-11-25T21:25:53.287Z,101190.75
2022-11-25T21:28:40.479Z,101194.72
2022-11-25T21:31:28.061Z,101205.75
2022-11-25T21:34:31.611Z,101200.22
2022-11-25T21:38:06.582Z,101209.97
2022-11-25T21:41:01.616Z,101213.31
2022-11-25T21:46:51.304Z,101215.03
2022-11-25T21:50:28.491Z,101217.59
2022-11-25T21:57:16.412Z,101225.63
2022-11-25T22:00:12.434Z,101228.88
2022-11-25T22:05:51.650Z,101230.28
2022-11-25T22:08:29.089Z,101232.84
2022-11-25T22:10:57.251Z,101244.00
2022-11-25T22:13:41.409Z,101250.19
2022-11-25T22:16:26.711Z,101241.31
2022-11-25T22:19:04.587Z,101246.81
2022-11-25T22:21:47.109Z,101250.91
2022-11-25T22:27:55.370Z,101252.59
2022-11-25T22:30:44.704Z,101250.72
2022-11-25T22:33:45.952Z,101251.69
2022-11-25T22:37:07.021Z,101266.88
2022-11-25T22:40:05.270Z,101261.75
2022-11-25T22:42:52.115Z,101266.50
2022-11-25T22:45:38.385Z,101268.25
2022-11-25T22:48:20.291Z,101263.25
2022-11-25T22:51:18.354Z,101273.69
2022-11-25T22:57:11.942Z,101283.16
2022-11-25T22:59:48.012Z,101286.19
2022-11-25T23:02:41.165Z,101285.31
2022-11-25T23:05:32.598Z,101285.75
2022-11-25T23:08:25.515Z,101291.09
2022-11-25T23:10:58.758Z,101291.13
2022-11-25T23:13:28.991Z,101309.19
2022-11-25T23:19:06.102Z,101305.06
2022-11-25T23:21:42.948Z,101311.56
2022-11-25T23:24:16.984Z,101313.13
2022-11-25T23:26:44.146Z,101316.47
2022-11-25T23:29:11.428Z,101313.22
2022-11-25T23:31:39.513Z,101319.56
2022-11-25T23:34:08.240Z,101314.16
2022-11-25T23:36:47.186Z,101324.28
2022-11-25T23:39:22.982Z,101326.53
2022-11-25T23:41:50.405Z,101327.47
2022-11-25T23:44:25.369Z,101329.28
2022-11-25T23:46:54.472Z,101331.69
2022-11-25T23:49:28.166Z,101340.91
2022-11-25T23:51:58.979Z,101345.44
2022-11-25T23:54:39.919Z,101346.06
2022-11-25T23:57:22.946Z,101348.09
